sensor_id;sensor_type;location;lat;lon;timestamp;P1;durP1;ratioP1;P2;durP2;ratioP2
71298;SDS011;59083;47.974;21.722;2022-11-15T00:00:13;66.85;;;8.07;;
71298;SDS011;59083;47.974;21.722;2022-11-15T00:03:32;60.15;;;8.25;;
71298;SDS011;59083;47.974;21.722;2022-11-15T00:06:52;31.87;;;8.13;;
71298;SDS011;59083;47.974;21.722;2022-11-15T00:10:11;41.90;;;8.67;;
71298;SDS011;59083;47.974;21.722;2022-11-15T00:13:31;40.60;;;8.48;;
71298;SDS011;59083;47.974;21.722;2022-11-15T00:16:51;46.00;;;8.88;;
71298;SDS011;59083;47.974;21.722;2022-11-15T00:20:10;48.85;;;8.68;;
71298;SDS011;59083;47.974;21.722;2022-11-15T00:23:31;55.58;;;9.02;;
71298;SDS011;59083;47.974;21.722;2022-11-15T00:26:50;35.70;;;7.90;;
71298;SDS011;59083;47.974;21.722;2022-11-15T00:30:10;67.25;;;9.40;;
71298;SDS011;59083;47.974;21.722;2022-11-15T00:33:30;99.30;;;9.27;;
71298;SDS011;59083;47.974;21.722;2022-11-15T00:36:50;49.63;;;8.45;;
71298;SDS011;59083;47.974;21.722;2022-11-15T00:40:10;74.20;;;9.02;;
71298;SDS011;59083;47.974;21.722;2022-11-15T00:43:31;51.87;;;7.80;;
71298;SDS011;59083;47.974;21.722;2022-11-15T00:46:51;67.80;;;9.50;;
71298;SDS011;59083;47.974;21.722;2022-11-15T00:50:11;43.35;;;9.07;;
71298;SDS011;59083;47.974;21.722;2022-11-15T00:53:31;51.88;;;9.20;;
71298;SDS011;59083;47.974;21.722;2022-11-15T00:56:51;57.85;;;8.77;;
71298;SDS011;59083;47.974;21.722;2022-11-15T01:00:11;84.60;;;8.73;;
71298;SDS011;59083;47.974;21.722;2022-11-15T01:03:32;37.03;;;8.50;;
71298;SDS011;59083;47.974;21.722;2022-11-15T01:06:52;39.60;;;8.07;;
71298;SDS011;59083;47.974;21.722;2022-11-15T01:10:12;63.13;;;8.57;;
71298;SDS011;59083;47.974;21.722;2022-11-15T01:13:32;39.65;;;8.20;;
71298;SDS011;59083;47.974;21.722;2022-11-15T01:16:53;45.17;;;7.70;;
71298;SDS011;59083;47.974;21.722;2022-11-15T01:20:13;45.03;;;8.00;;
71298;SDS011;59083;47.974;21.722;2022-11-15T01:23:32;57.80;;;8.93;;
71298;SDS011;59083;47.974;21.722;2022-11-15T01:26:53;54.97;;;8.40;;
71298;SDS011;59083;47.974;21.722;2022-11-15T01:30:12;44.53;;;8.82;;
71298;SDS011;59083;47.974;21.722;2022-11-15T01:33:33;149.07;;;10.17;;
71298;SDS011;59083;47.974;21.722;2022-11-15T01:36:54;97.05;;;11.40;;
71298;SDS011;59083;47.974;21.722;2022-11-15T01:40:13;92.65;;;10.00;;
71298;SDS011;59083;47.974;21.722;2022-11-15T01:43:34;63.05;;;10.25;;
71298;SDS011;59083;47.974;21.722;2022-11-15T01:46:55;43.58;;;10.68;;
71298;SDS011;59083;47.974;21.722;2022-11-15T01:50:16;54.63;;;8.90;;
71298;SDS011;59083;47.974;21.722;2022-11-15T01:53:40;65.82;;;10.57;;
71298;SDS011;59083;47.974;21.722;2022-11-15T01:57:07;44.97;;;10.55;;
71298;SDS011;59083;47.974;21.722;2022-11-15T02:00:29;67.97;;;10.50;;
71298;SDS011;59083;47.974;21.722;2022-11-15T02:03:52;107.75;;;13.25;;
71298;SDS011;59083;47.974;21.722;2022-11-15T02:07:18;98.43;;;11.20;;
71298;SDS011;59083;47.974;21.722;2022-11-15T02:10:39;66.50;;;11.00;;
71298;SDS011;59083;47.974;21.722;2022-11-15T02:13:59;49.65;;;10.60;;
71298;SDS011;59083;47.974;21.722;2022-11-15T02:31:00;89.32;;;10.48;;
71298;SDS011;59083;47.974;21.722;2022-11-15T02:34:50;79.40;;;11.38;;
71298;SDS011;59083;47.974;21.722;2022-11-15T02:38:47;43.95;;;10.10;;
71298;SDS011;59083;47.974;21.722;2022-11-15T02:42:19;68.57;;;10.30;;
71298;SDS011;59083;47.974;21.722;2022-11-15T02:46:08;67.60;;;10.52;;
71298;SDS011;59083;47.974;21.722;2022-11-15T02:49:34;50.95;;;10.15;;
71298;SDS011;59083;47.974;21.722;2022-11-15T02:52:56;59.35;;;11.32;;
71298;SDS011;59083;47.974;21.722;2022-11-15T02:56:16;40.42;;;10.20;;
71298;SDS011;59083;47.974;21.722;2022-11-15T03:03:40;54.88;;;10.38;;
71298;SDS011;59083;47.974;21.722;2022-11-15T03:07:29;67.85;;;11.45;;
71298;SDS011;59083;47.974;21.722;2022-11-15T03:11:14;70.53;;;11.82;;
71298;SDS011;59083;47.974;21.722;2022-11-15T03:14:38;72.18;;;11.75;;
71298;SDS011;59083;47.974;21.722;2022-11-15T03:18:10;55.87;;;12.20;;
71298;SDS011;59083;47.974;21.722;2022-11-15T03:21:39;33.50;;;11.23;;
71298;SDS011;59083;47.974;21.722;2022-11-15T03:25:00;57.00;;;11.88;;
71298;SDS011;59083;47.974;21.722;2022-11-15T03:28:25;68.95;;;11.93;;
71298;SDS011;59083;47.974;21.722;2022-11-15T03:32:11;85.03;;;12.63;;
71298;SDS011;59083;47.974;21.722;2022-11-15T03:35:37;44.20;;;10.50;;
71298;SDS011;59083;47.974;21.722;2022-11-15T03:39:02;64.50;;;12.77;;
71298;SDS011;59083;47.974;21.722;2022-11-15T03:42:27;92.85;;;12.07;;
71298;SDS011;59083;47.974;21.722;2022-11-15T03:46:06;57.92;;;12.37;;
71298;SDS011;59083;47.974;21.722;2022-11-15T03:49:32;91.85;;;13.88;;
71298;SDS011;59083;47.974;21.722;2022-11-15T03:52:53;79.30;;;11.93;;
71298;SDS011;59083;47.974;21.722;2022-11-15T03:56:14;68.18;;;12.85;;
71298;SDS011;59083;47.974;21.722;2022-11-15T03:59:33;71.32;;;13.65;;
71298;SDS011;59083;47.974;21.722;2022-11-15T04:02:53;77.05;;;12.85;;
71298;SDS011;59083;47.974;21.722;2022-11-15T04:06:12;59.95;;;12.07;;
71298;SDS011;59083;47.974;21.722;2022-11-15T04:09:32;77.10;;;13.23;;
71298;SDS011;59083;47.974;21.722;2022-11-15T04:12:51;60.65;;;13.13;;
71298;SDS011;59083;47.974;21.722;2022-11-15T04:16:11;74.25;;;15.38;;
71298;SDS011;59083;47.974;21.722;2022-11-15T04:19:31;51.00;;;12.95;;
71298;SDS011;59083;47.974;21.722;2022-11-15T04:23:10;45.63;;;12.37;;
71298;SDS011;59083;47.974;21.722;2022-11-15T04:26:49;61.83;;;12.60;;
71298;SDS011;59083;47.974;21.722;2022-11-15T04:30:09;50.85;;;12.98;;
71298;SDS011;59083;47.974;21.722;2022-11-15T04:33:29;64.22;;;13.10;;
71298;SDS011;59083;47.974;21.722;2022-11-15T04:36:49;64.80;;;13.40;;
71298;SDS011;59083;47.974;21.722;2022-11-15T04:40:27;43.25;;;12.95;;
71298;SDS011;59083;47.974;21.722;2022-11-15T04:43:46;32.20;;;12.53;;
71298;SDS011;59083;47.974;21.722;2022-11-15T04:47:06;55.58;;;14.43;;
71298;SDS011;59083;47.974;21.722;2022-11-15T04:50:26;76.20;;;13.82;;
71298;SDS011;59083;47.974;21.722;2022-11-15T04:53:45;71.03;;;13.62;;
71298;SDS011;59083;47.974;21.722;2022-11-15T04:57:04;67.32;;;13.80;;
71298;SDS011;59083;47.974;21.722;2022-11-15T05:00:24;38.93;;;13.13;;
71298;SDS011;59083;47.974;21.722;2022-11-15T05:03:44;47.72;;;14.13;;
71298;SDS011;59083;47.974;21.722;2022-11-15T05:07:23;77.95;;;13.52;;
71298;SDS011;59083;47.974;21.722;2022-11-15T05:10:42;63.40;;;14.75;;
71298;SDS011;59083;47.974;21.722;2022-11-15T05:14:02;43.00;;;12.77;;
71298;SDS011;59083;47.974;21.722;2022-11-15T05:17:21;52.37;;;12.97;;
71298;SDS011;59083;47.974;21.722;2022-11-15T05:20:41;63.17;;;13.43;;
71298;SDS011;59083;47.974;21.722;2022-11-15T05:24:01;92.53;;;14.77;;
71298;SDS011;59083;47.974;21.722;2022-11-15T05:27:20;113.88;;;14.95;;
71298;SDS011;59083;47.974;21.722;2022-11-15T05:30:40;59.33;;;13.93;;
71298;SDS011;59083;47.974;21.722;2022-11-15T05:33:59;70.10;;;15.13;;
71298;SDS011;59083;47.974;21.722;2022-11-15T05:37:21;58.13;;;13.88;;
71298;SDS011;59083;47.974;21.722;2022-11-15T05:40:41;59.25;;;14.50;;
71298;SDS011;59083;47.974;21.722;2022-11-15T05:44:01;58.08;;;14.35;;
71298;SDS011;59083;47.974;21.722;2022-11-15T05:47:23;59.47;;;14.00;;
71298;SDS011;59083;47.974;21.722;2022-11-15T05:50:46;50.63;;;14.10;;
71298;SDS011;59083;47.974;21.722;2022-11-15T05:54:07;68.97;;;14.32;;
71298;SDS011;59083;47.974;21.722;2022-11-15T05:57:27;40.45;;;14.07;;
71298;SDS011;59083;47.974;21.722;2022-11-15T06:00:46;55.90;;;13.52;;
71298;SDS011;59083;47.974;21.722;2022-11-15T06:04:06;49.17;;;18.10;;
71298;SDS011;59083;47.974;21.722;2022-11-15T06:07:26;49.27;;;14.97;;
71298;SDS011;59083;47.974;21.722;2022-11-15T06:10:45;42.38;;;15.32;;
71298;SDS011;59083;47.974;21.722;2022-11-15T06:14:05;73.05;;;15.93;;
71298;SDS011;59083;47.974;21.722;2022-11-15T06:17:24;75.50;;;15.18;;
71298;SDS011;59083;47.974;21.722;2022-11-15T06:20:44;78.72;;;15.02;;
71298;SDS011;59083;47.974;21.722;2022-11-15T06:24:04;46.73;;;15.43;;
71298;SDS011;59083;47.974;21.722;2022-11-15T06:27:24;80.18;;;15.75;;
71298;SDS011;59083;47.974;21.722;2022-11-15T06:30:43;45.03;;;13.85;;
71298;SDS011;59083;47.974;21.722;2022-11-15T06:34:02;52.47;;;15.32;;
71298;SDS011;59083;47.974;21.722;2022-11-15T06:37:22;47.83;;;13.52;;
71298;SDS011;59083;47.974;21.722;2022-11-15T06:40:41;42.87;;;15.63;;
71298;SDS011;59083;47.974;21.722;2022-11-15T06:44:01;51.88;;;16.65;;
71298;SDS011;59083;47.974;21.722;2022-11-15T06:47:21;77.53;;;17.25;;
71298;SDS011;59083;47.974;21.722;2022-11-15T06:50:41;57.13;;;15.35;;
71298;SDS011;59083;47.974;21.722;2022-11-15T06:54:00;47.00;;;15.45;;
71298;SDS011;59083;47.974;21.722;2022-11-15T06:57:20;38.00;;;14.27;;
71298;SDS011;59083;47.974;21.722;2022-11-15T07:00:39;47.38;;;16.05;;
71298;SDS011;59083;47.974;21.722;2022-11-15T07:03:59;52.33;;;15.00;;
71298;SDS011;59083;47.974;21.722;2022-11-15T07:07:18;44.42;;;13.10;;
71298;SDS011;59083;47.974;21.722;2022-11-15T07:10:38;62.25;;;14.30;;
71298;SDS011;59083;47.974;21.722;2022-11-15T07:13:58;62.33;;;15.23;;
71298;SDS011;59083;47.974;21.722;2022-11-15T07:17:19;40.90;;;15.05;;
71298;SDS011;59083;47.974;21.722;2022-11-15T07:20:38;51.08;;;12.77;;
71298;SDS011;59083;47.974;21.722;2022-11-15T07:23:58;39.00;;;13.70;;
71298;SDS011;59083;47.974;21.722;2022-11-15T07:27:18;45.72;;;14.48;;
71298;SDS011;59083;47.974;21.722;2022-11-15T07:30:37;35.17;;;13.10;;
71298;SDS011;59083;47.974;21.722;2022-11-15T07:33:57;35.03;;;14.23;;
71298;SDS011;59083;47.974;21.722;2022-11-15T07:37:16;38.15;;;13.50;;
71298;SDS011;59083;47.974;21.722;2022-11-15T07:40:36;57.88;;;14.57;;
71298;SDS011;59083;47.974;21.722;2022-11-15T07:43:56;40.88;;;13.48;;
71298;SDS011;59083;47.974;21.722;2022-11-15T07:47:16;54.70;;;13.80;;
71298;SDS011;59083;47.974;21.722;2022-11-15T07:50:36;36.92;;;14.60;;
71298;SDS011;59083;47.974;21.722;2022-11-15T07:53:56;36.05;;;13.77;;
71298;SDS011;59083;47.974;21.722;2022-11-15T07:57:15;39.55;;;15.23;;
71298;SDS011;59083;47.974;21.722;2022-11-15T08:00:35;52.08;;;15.20;;
71298;SDS011;59083;47.974;21.722;2022-11-15T08:03:55;35.80;;;14.53;;
71298;SDS011;59083;47.974;21.722;2022-11-15T08:07:14;34.58;;;16.15;;
71298;SDS011;59083;47.974;21.722;2022-11-15T08:10:34;38.25;;;16.27;;
71298;SDS011;59083;47.974;21.722;2022-11-15T08:13:54;44.10;;;16.30;;
71298;SDS011;59083;47.974;21.722;2022-11-15T08:17:14;37.05;;;17.15;;
71298;SDS011;59083;47.974;21.722;2022-11-15T08:20:34;34.80;;;16.27;;
71298;SDS011;59083;47.974;21.722;2022-11-15T08:23:54;37.92;;;17.50;;
71298;SDS011;59083;47.974;21.722;2022-11-15T08:27:13;39.72;;;17.52;;
71298;SDS011;59083;47.974;21.722;2022-11-15T08:30:36;32.90;;;16.67;;
71298;SDS011;59083;47.974;21.722;2022-11-15T08:33:57;34.60;;;17.17;;
71298;SDS011;59083;47.974;21.722;2022-11-15T08:37:17;37.93;;;18.33;;
71298;SDS011;59083;47.974;21.722;2022-11-15T08:40:36;40.60;;;18.23;;
71298;SDS011;59083;47.974;21.722;2022-11-15T08:43:56;43.97;;;18.85;;
71298;SDS011;59083;47.974;21.722;2022-11-15T08:47:16;44.38;;;20.70;;
71298;SDS011;59083;47.974;21.722;2022-11-15T08:50:35;38.13;;;18.70;;
71298;SDS011;59083;47.974;21.722;2022-11-15T08:53:55;37.60;;;17.77;;
71298;SDS011;59083;47.974;21.722;2022-11-15T08:57:14;36.58;;;17.60;;
71298;SDS011;59083;47.974;21.722;2022-11-15T09:00:34;37.17;;;19.05;;
71298;SDS011;59083;47.974;21.722;2022-11-15T09:03:53;34.42;;;17.92;;
71298;SDS011;59083;47.974;21.722;2022-11-15T09:07:13;37.55;;;18.58;;
71298;SDS011;59083;47.974;21.722;2022-11-15T09:10:33;33.77;;;17.43;;
71298;SDS011;59083;47.974;21.722;2022-11-15T09:13:52;40.30;;;19.02;;
71298;SDS011;59083;47.974;21.722;2022-11-15T09:17:12;38.13;;;18.75;;
71298;SDS011;59083;47.974;21.722;2022-11-15T09:20:31;37.72;;;19.25;;
71298;SDS011;59083;47.974;21.722;2022-11-15T09:23:51;45.95;;;21.83;;
71298;SDS011;59083;47.974;21.722;2022-11-15T09:27:11;37.07;;;17.33;;
71298;SDS011;59083;47.974;21.722;2022-11-15T09:30:32;34.42;;;17.35;;
71298;SDS011;59083;47.974;21.722;2022-11-15T09:33:51;35.63;;;17.55;;
71298;SDS011;59083;47.974;21.722;2022-11-15T09:37:11;34.30;;;17.02;;
71298;SDS011;59083;47.974;21.722;2022-11-15T09:40:31;35.17;;;18.08;;
71298;SDS011;59083;47.974;21.722;2022-11-15T09:44:04;32.03;;;17.03;;
71298;SDS011;59083;47.974;21.722;2022-11-15T09:47:49;30.80;;;16.98;;
71298;SDS011;59083;47.974;21.722;2022-11-15T09:50:53;36.03;;;18.58;;
71298;SDS011;59083;47.974;21.722;2022-11-15T09:54:02;33.40;;;17.42;;
71298;SDS011;59083;47.974;21.722;2022-11-15T09:57:11;34.70;;;17.15;;
71298;SDS011;59083;47.974;21.722;2022-11-15T10:00:35;42.23;;;20.57;;
71298;SDS011;59083;47.974;21.722;2022-11-15T10:03:49;33.67;;;17.20;;
71298;SDS011;59083;47.974;21.722;2022-11-15T10:07:13;39.70;;;18.45;;
71298;SDS011;59083;47.974;21.722;2022-11-15T10:13:30;33.92;;;18.67;;
71298;SDS011;59083;47.974;21.722;2022-11-15T10:23:18;36.20;;;18.42;;
71298;SDS011;59083;47.974;21.722;2022-11-15T10:26:21;37.13;;;18.98;;
71298;SDS011;59083;47.974;21.722;2022-11-15T10:29:24;42.65;;;19.35;;
71298;SDS011;59083;47.974;21.722;2022-11-15T10:32:26;34.00;;;18.40;;
71298;SDS011;59083;47.974;21.722;2022-11-15T10:35:29;31.52;;;17.42;;
71298;SDS011;59083;47.974;21.722;2022-11-15T10:38:30;39.45;;;20.08;;
71298;SDS011;59083;47.974;21.722;2022-11-15T10:41:34;34.20;;;18.75;;
71298;SDS011;59083;47.974;21.722;2022-11-15T10:44:41;40.60;;;21.42;;
71298;SDS011;59083;47.974;21.722;2022-11-15T10:47:43;38.67;;;19.93;;
71298;SDS011;59083;47.974;21.722;2022-11-15T10:50:45;33.05;;;18.17;;
71298;SDS011;59083;47.974;21.722;2022-11-15T10:53:48;35.95;;;19.77;;
71298;SDS011;59083;47.974;21.722;2022-11-15T10:56:52;39.90;;;19.52;;
71298;SDS011;59083;47.974;21.722;2022-11-15T11:09:59;31.48;;;16.80;;
71298;SDS011;59083;47.974;21.722;2022-11-15T11:13:14;31.48;;;16.77;;
71298;SDS011;59083;47.974;21.722;2022-11-15T11:16:31;32.72;;;17.52;;
71298;SDS011;59083;47.974;21.722;2022-11-15T11:30:32;31.23;;;17.48;;
71298;SDS011;59083;47.974;21.722;2022-11-15T11:43:59;34.00;;;17.67;;
71298;SDS011;59083;47.974;21.722;2022-11-15T11:50:28;32.88;;;18.12;;
71298;SDS011;59083;47.974;21.722;2022-11-15T11:53:31;33.13;;;17.87;;
71298;SDS011;59083;47.974;21.722;2022-11-15T11:56:41;37.17;;;18.83;;
71298;SDS011;59083;47.974;21.722;2022-11-15T11:59:48;37.78;;;18.80;;
71298;SDS011;59083;47.974;21.722;2022-11-15T12:03:00;30.75;;;16.85;;
71298;SDS011;59083;47.974;21.722;2022-11-15T12:12:58;31.90;;;17.42;;
71298;SDS011;59083;47.974;21.722;2022-11-15T12:19:25;34.38;;;18.15;;
71298;SDS011;59083;47.974;21.722;2022-11-15T12:29:15;37.70;;;20.33;;
71298;SDS011;59083;47.974;21.722;2022-11-15T12:32:24;36.15;;;19.25;;
71298;SDS011;59083;47.974;21.722;2022-11-15T12:39:00;35.35;;;20.35;;
71298;SDS011;59083;47.974;21.722;2022-11-15T12:45:22;35.03;;;18.85;;
71298;SDS011;59083;47.974;21.722;2022-11-15T12:54:50;38.95;;;18.50;;
71298;SDS011;59083;47.974;21.722;2022-11-15T12:57:53;32.60;;;17.70;;
71298;SDS011;59083;47.974;21.722;2022-11-15T13:00:55;32.47;;;18.48;;
71298;SDS011;59083;47.974;21.722;2022-11-15T13:10:41;31.20;;;17.08;;
71298;SDS011;59083;47.974;21.722;2022-11-15T13:13:42;34.93;;;18.13;;
71298;SDS011;59083;47.974;21.722;2022-11-15T13:16:45;33.00;;;17.85;;
71298;SDS011;59083;47.974;21.722;2022-11-15T13:19:59;33.60;;;18.02;;
71298;SDS011;59083;47.974;21.722;2022-11-15T13:23:12;33.55;;;18.60;;
71298;SDS011;59083;47.974;21.722;2022-11-15T13:26:16;35.75;;;18.60;;
71298;SDS011;59083;47.974;21.722;2022-11-15T13:29:18;37.93;;;18.97;;
71298;SDS011;59083;47.974;21.722;2022-11-15T13:32:20;39.20;;;19.37;;
71298;SDS011;59083;47.974;21.722;2022-11-15T13:35:23;37.30;;;19.95;;
71298;SDS011;59083;47.974;21.722;2022-11-15T13:38:28;34.83;;;19.40;;
71298;SDS011;59083;47.974;21.722;2022-11-15T13:41:35;36.05;;;20.17;;
71298;SDS011;59083;47.974;21.722;2022-11-15T13:44:58;42.07;;;21.67;;
71298;SDS011;59083;47.974;21.722;2022-11-15T13:48:02;47.08;;;22.90;;
71298;SDS011;59083;47.974;21.722;2022-11-15T13:51:05;46.65;;;24.33;;
71298;SDS011;59083;47.974;21.722;2022-11-15T13:54:19;42.62;;;22.27;;
71298;SDS011;59083;47.974;21.722;2022-11-15T13:57:28;42.30;;;22.40;;
71298;SDS011;59083;47.974;21.722;2022-11-15T14:00:37;39.57;;;21.97;;
71298;SDS011;59083;47.974;21.722;2022-11-15T14:03:46;47.85;;;22.25;;
71298;SDS011;59083;47.974;21.722;2022-11-15T14:06:58;39.85;;;21.33;;
71298;SDS011;59083;47.974;21.722;2022-11-15T14:10:16;46.60;;;23.42;;
71298;SDS011;59083;47.974;21.722;2022-11-15T14:13:27;45.08;;;22.90;;
71298;SDS011;59083;47.974;21.722;2022-11-15T14:16:34;55.17;;;25.23;;
71298;SDS011;59083;47.974;21.722;2022-11-15T14:19:38;55.90;;;26.90;;
71298;SDS011;59083;47.974;21.722;2022-11-15T14:22:50;50.30;;;26.17;;
71298;SDS011;59083;47.974;21.722;2022-11-15T14:25:53;53.45;;;25.40;;
71298;SDS011;59083;47.974;21.722;2022-11-15T14:28:56;53.40;;;25.02;;
71298;SDS011;59083;47.974;21.722;2022-11-15T14:35:44;45.63;;;23.52;;
71298;SDS011;59083;47.974;21.722;2022-11-15T14:38:45;45.05;;;23.58;;
71298;SDS011;59083;47.974;21.722;2022-11-15T14:41:47;44.15;;;23.15;;
71298;SDS011;59083;47.974;21.722;2022-11-15T14:44:48;49.75;;;24.20;;
71298;SDS011;59083;47.974;21.722;2022-11-15T14:47:50;48.97;;;23.60;;
71298;SDS011;59083;47.974;21.722;2022-11-15T14:50:51;50.10;;;25.45;;
71298;SDS011;59083;47.974;21.722;2022-11-15T14:53:52;47.62;;;25.55;;
71298;SDS011;59083;47.974;21.722;2022-11-15T14:56:55;44.55;;;23.23;;
71298;SDS011;59083;47.974;21.722;2022-11-15T14:59:57;48.13;;;23.65;;
71298;SDS011;59083;47.974;21.722;2022-11-15T15:02:58;46.63;;;24.23;;
71298;SDS011;59083;47.974;21.722;2022-11-15T15:05:59;49.45;;;24.65;;
71298;SDS011;59083;47.974;21.722;2022-11-15T15:09:01;48.45;;;23.92;;
71298;SDS011;59083;47.974;21.722;2022-11-15T15:12:02;45.15;;;23.87;;
71298;SDS011;59083;47.974;21.722;2022-11-15T15:15:04;48.17;;;24.52;;
71298;SDS011;59083;47.974;21.722;2022-11-15T15:18:06;51.03;;;24.83;;
71298;SDS011;59083;47.974;21.722;2022-11-15T15:21:27;43.83;;;23.60;;
71298;SDS011;59083;47.974;21.722;2022-11-15T15:24:29;54.47;;;27.87;;
71298;SDS011;59083;47.974;21.722;2022-11-15T15:27:30;55.30;;;27.13;;
71298;SDS011;59083;47.974;21.722;2022-11-15T15:30:32;58.17;;;27.10;;
71298;SDS011;59083;47.974;21.722;2022-11-15T15:33:33;56.13;;;28.37;;
71298;SDS011;59083;47.974;21.722;2022-11-15T15:36:34;50.17;;;25.75;;
71298;SDS011;59083;47.974;21.722;2022-11-15T15:39:35;51.08;;;26.83;;
71298;SDS011;59083;47.974;21.722;2022-11-15T15:42:37;58.30;;;25.65;;
71298;SDS011;59083;47.974;21.722;2022-11-15T15:45:38;44.55;;;24.12;;
71298;SDS011;59083;47.974;21.722;2022-11-15T15:48:41;53.67;;;24.97;;
71298;SDS011;59083;47.974;21.722;2022-11-15T15:51:42;54.22;;;24.98;;
71298;SDS011;59083;47.974;21.722;2022-11-15T15:54:44;51.37;;;25.60;;
71298;SDS011;59083;47.974;21.722;2022-11-15T15:57:45;60.50;;;26.83;;
71298;SDS011;59083;47.974;21.722;2022-11-15T16:00:47;57.90;;;27.37;;
71298;SDS011;59083;47.974;21.722;2022-11-15T16:03:48;54.20;;;26.43;;
71298;SDS011;59083;47.974;21.722;2022-11-15T16:06:49;52.65;;;27.50;;
71298;SDS011;59083;47.974;21.722;2022-11-15T16:09:53;56.10;;;29.33;;
71298;SDS011;59083;47.974;21.722;2022-11-15T16:13:01;57.38;;;29.37;;
71298;SDS011;59083;47.974;21.722;2022-11-15T16:16:02;58.42;;;28.27;;
71298;SDS011;59083;47.974;21.722;2022-11-15T16:19:03;61.63;;;28.17;;
71298;SDS011;59083;47.974;21.722;2022-11-15T16:22:05;58.38;;;29.77;;
71298;SDS011;59083;47.974;21.722;2022-11-15T16:25:06;62.38;;;28.77;;
71298;SDS011;59083;47.974;21.722;2022-11-15T16:28:28;55.72;;;28.12;;
71298;SDS011;59083;47.974;21.722;2022-11-15T16:31:31;59.60;;;28.10;;
71298;SDS011;59083;47.974;21.722;2022-11-15T16:34:32;58.40;;;28.67;;
71298;SDS011;59083;47.974;21.722;2022-11-15T16:37:33;57.17;;;28.38;;
71298;SDS011;59083;47.974;21.722;2022-11-15T16:40:34;55.30;;;28.15;;
71298;SDS011;59083;47.974;21.722;2022-11-15T16:43:36;61.03;;;27.90;;
71298;SDS011;59083;47.974;21.722;2022-11-15T16:46:37;63.40;;;31.37;;
71298;SDS011;59083;47.974;21.722;2022-11-15T16:49:44;59.60;;;29.93;;
71298;SDS011;59083;47.974;21.722;2022-11-15T16:52:45;59.10;;;29.92;;
71298;SDS011;59083;47.974;21.722;2022-11-15T16:55:47;63.80;;;31.10;;
71298;SDS011;59083;47.974;21.722;2022-11-15T16:58:48;66.07;;;31.12;;
71298;SDS011;59083;47.974;21.722;2022-11-15T17:01:49;61.05;;;30.12;;
71298;SDS011;59083;47.974;21.722;2022-11-15T17:04:52;51.33;;;28.07;;
71298;SDS011;59083;47.974;21.722;2022-11-15T17:07:53;53.05;;;26.92;;
71298;SDS011;59083;47.974;21.722;2022-11-15T17:10:55;54.30;;;27.95;;
71298;SDS011;59083;47.974;21.722;2022-11-15T17:13:56;53.60;;;28.00;;
71298;SDS011;59083;47.974;21.722;2022-11-15T17:16:59;53.83;;;28.67;;
71298;SDS011;59083;47.974;21.722;2022-11-15T17:20:00;51.90;;;28.57;;
71298;SDS011;59083;47.974;21.722;2022-11-15T17:23:04;62.80;;;29.52;;
71298;SDS011;59083;47.974;21.722;2022-11-15T17:26:12;52.83;;;28.00;;
71298;SDS011;59083;47.974;21.722;2022-11-15T17:29:14;61.42;;;30.08;;
71298;SDS011;59083;47.974;21.722;2022-11-15T17:32:15;53.72;;;27.67;;
71298;SDS011;59083;47.974;21.722;2022-11-15T17:35:17;55.93;;;28.73;;
71298;SDS011;59083;47.974;21.722;2022-11-15T17:38:18;58.42;;;30.80;;
71298;SDS011;59083;47.974;21.722;2022-11-15T17:41:19;64.68;;;32.70;;
71298;SDS011;59083;47.974;21.722;2022-11-15T17:44:20;73.82;;;33.42;;
71298;SDS011;59083;47.974;21.722;2022-11-15T17:47:22;67.37;;;32.35;;
71298;SDS011;59083;47.974;21.722;2022-11-15T17:50:23;66.17;;;35.13;;
71298;SDS011;59083;47.974;21.722;2022-11-15T17:53:24;72.05;;;34.33;;
71298;SDS011;59083;47.974;21.722;2022-11-15T17:56:27;64.43;;;34.42;;
71298;SDS011;59083;47.974;21.722;2022-11-15T17:59:30;71.62;;;37.42;;
71298;SDS011;59083;47.974;21.722;2022-11-15T18:02:31;70.93;;;35.58;;
71298;SDS011;59083;47.974;21.722;2022-11-15T18:05:33;79.07;;;37.43;;
71298;SDS011;59083;47.974;21.722;2022-11-15T18:08:34;79.50;;;38.05;;
71298;SDS011;59083;47.974;21.722;2022-11-15T18:11:38;75.22;;;38.08;;
71298;SDS011;59083;47.974;21.722;2022-11-15T18:14:41;85.82;;;41.42;;
71298;SDS011;59083;47.974;21.722;2022-11-15T18:17:42;79.35;;;40.90;;
71298;SDS011;59083;47.974;21.722;2022-11-15T18:20:43;85.87;;;40.63;;
71298;SDS011;59083;47.974;21.722;2022-11-15T18:23:45;98.00;;;46.83;;
71298;SDS011;59083;47.974;21.722;2022-11-15T18:26:46;95.20;;;47.00;;
71298;SDS011;59083;47.974;21.722;2022-11-15T18:29:47;114.00;;;50.78;;
71298;SDS011;59083;47.974;21.722;2022-11-15T18:32:48;116.32;;;53.75;;
71298;SDS011;59083;47.974;21.722;2022-11-15T18:35:56;114.87;;;51.47;;
71298;SDS011;59083;47.974;21.722;2022-11-15T18:38:59;106.45;;;50.70;;
71298;SDS011;59083;47.974;21.722;2022-11-15T18:42:02;110.25;;;52.25;;
71298;SDS011;59083;47.974;21.722;2022-11-15T18:45:04;107.85;;;52.10;;
71298;SDS011;59083;47.974;21.722;2022-11-15T18:48:06;117.43;;;53.85;;
71298;SDS011;59083;47.974;21.722;2022-11-15T18:51:08;121.83;;;54.53;;
71298;SDS011;59083;47.974;21.722;2022-11-15T18:54:12;121.53;;;56.25;;
71298;SDS011;59083;47.974;21.722;2022-11-15T18:57:14;125.57;;;56.95;;
71298;SDS011;59083;47.974;21.722;2022-11-15T19:00:16;124.97;;;56.88;;
71298;SDS011;59083;47.974;21.722;2022-11-15T19:03:18;123.28;;;56.00;;
71298;SDS011;59083;47.974;21.722;2022-11-15T19:06:20;111.67;;;49.00;;
71298;SDS011;59083;47.974;21.722;2022-11-15T19:09:23;108.07;;;49.20;;
71298;SDS011;59083;47.974;21.722;2022-11-15T19:12:31;103.62;;;49.08;;
71298;SDS011;59083;47.974;21.722;2022-11-15T19:15:32;91.97;;;43.92;;
71298;SDS011;59083;47.974;21.722;2022-11-15T19:18:34;83.18;;;42.35;;
71298;SDS011;59083;47.974;21.722;2022-11-15T19:21:35;74.50;;;38.60;;
71298;SDS011;59083;47.974;21.722;2022-11-15T19:24:36;77.18;;;39.90;;
71298;SDS011;59083;47.974;21.722;2022-11-15T19:27:37;78.60;;;40.17;;
71298;SDS011;59083;47.974;21.722;2022-11-15T19:30:38;79.35;;;39.65;;
71298;SDS011;59083;47.974;21.722;2022-11-15T19:33:40;77.40;;;39.58;;
71298;SDS011;59083;47.974;21.722;2022-11-15T19:36:43;74.93;;;39.17;;
71298;SDS011;59083;47.974;21.722;2022-11-15T19:39:44;87.20;;;41.28;;
71298;SDS011;59083;47.974;21.722;2022-11-15T19:42:46;80.47;;;40.83;;
71298;SDS011;59083;47.974;21.722;2022-11-15T19:45:54;80.00;;;38.83;;
71298;SDS011;59083;47.974;21.722;2022-11-15T19:48:56;77.97;;;39.03;;
71298;SDS011;59083;47.974;21.722;2022-11-15T19:51:57;83.47;;;41.60;;
71298;SDS011;59083;47.974;21.722;2022-11-15T19:54:59;78.82;;;41.70;;
71298;SDS011;59083;47.974;21.722;2022-11-15T19:58:00;82.05;;;41.35;;
71298;SDS011;59083;47.974;21.722;2022-11-15T20:01:05;81.25;;;41.88;;
71298;SDS011;59083;47.974;21.722;2022-11-15T20:04:08;92.22;;;45.38;;
71298;SDS011;59083;47.974;21.722;2022-11-15T20:07:09;98.73;;;44.93;;
71298;SDS011;59083;47.974;21.722;2022-11-15T20:10:11;86.68;;;44.95;;
71298;SDS011;59083;47.974;21.722;2022-11-15T20:13:12;99.72;;;46.60;;